sensor_id;sensor_type;location;lat;lon;timestamp;P1;durP1;ratioP1;P2;durP2;ratioP2
19905;SDS011;10115;50.906;4.438;2022-11-04T00:01:42;3.93;;;3.37;;
19905;SDS011;10115;50.906;4.438;2022-11-04T00:04:10;5.10;;;3.73;;
19905;SDS011;10115;50.906;4.438;2022-11-04T00:06:37;5.20;;;3.07;;
19905;SDS011;10115;50.906;4.438;2022-11-04T00:09:03;3.93;;;3.53;;
19905;SDS011;10115;50.906;4.438;2022-11-04T00:11:31;4.57;;;4.13;;
19905;SDS011;10115;50.906;4.438;2022-11-04T00:14:15;10.10;;;3.17;;
19905;SDS011;10115;50.906;4.438;2022-11-04T00:16:41;4.77;;;3.97;;
19905;SDS011;10115;50.906;4.438;2022-11-04T00:19:25;3.57;;;3.27;;
19905;SDS011;10115;50.906;4.438;2022-11-04T00:21:51;9.77;;;5.63;;
19905;SDS011;10115;50.906;4.438;2022-11-04T00:24:36;3.20;;;3.00;;
19905;SDS011;10115;50.906;4.438;2022-11-04T00:27:20;3.80;;;3.60;;
19905;SDS011;10115;50.906;4.438;2022-11-04T00:30:05;4.27;;;3.73;;
19905;SDS011;10115;50.906;4.438;2022-11-04T00:32:34;3.07;;;2.87;;
19905;SDS011;10115;50.906;4.438;2022-11-04T00:35:19;3.00;;;2.77;;
19905;SDS011;10115;50.906;4.438;2022-11-04T00:37:45;3.10;;;2.80;;
19905;SDS011;10115;50.906;4.438;2022-11-04T00:40:12;2.87;;;2.67;;
19905;SDS011;10115;50.906;4.438;2022-11-04T00:42:42;11.60;;;3.60;;
19905;SDS011;10115;50.906;4.438;2022-11-04T00:45:08;2.77;;;2.67;;
19905;SDS011;10115;50.906;4.438;2022-11-04T00:47:34;3.07;;;2.87;;
19905;SDS011;10115;50.906;4.438;2022-11-04T00:50:00;12.77;;;3.30;;
19905;SDS011;10115;50.906;4.438;2022-11-04T00:52:26;3.20;;;2.90;;
19905;SDS011;10115;50.906;4.438;2022-11-04T00:54:51;3.17;;;3.03;;
19905;SDS011;10115;50.906;4.438;2022-11-04T00:57:17;3.97;;;2.60;;
19905;SDS011;10115;50.906;4.438;2022-11-04T00:59:43;2.87;;;2.77;;
19905;SDS011;10115;50.906;4.438;2022-11-04T01:02:09;3.20;;;3.00;;
19905;SDS011;10115;50.906;4.438;2022-11-04T01:04:36;3.13;;;2.70;;
19905;SDS011;10115;50.906;4.438;2022-11-04T01:07:02;5.53;;;4.10;;
19905;SDS011;10115;50.906;4.438;2022-11-04T01:09:28;6.93;;;3.03;;
19905;SDS011;10115;50.906;4.438;2022-11-04T01:11:54;2.70;;;2.50;;
19905;SDS011;10115;50.906;4.438;2022-11-04T01:14:19;6.60;;;2.80;;
19905;SDS011;10115;50.906;4.438;2022-11-04T01:16:47;10.73;;;3.50;;
19905;SDS011;10115;50.906;4.438;2022-11-04T01:19:13;2.73;;;2.60;;
19905;SDS011;10115;50.906;4.438;2022-11-04T01:21:39;4.40;;;3.00;;
19905;SDS011;10115;50.906;4.438;2022-11-04T01:24:05;2.60;;;2.50;;
19905;SDS011;10115;50.906;4.438;2022-11-04T01:26:30;7.60;;;2.90;;
19905;SDS011;10115;50.906;4.438;2022-11-04T01:28:56;8.83;;;2.87;;
19905;SDS011;10115;50.906;4.438;2022-11-04T01:31:25;5.40;;;3.73;;
19905;SDS011;10115;50.906;4.438;2022-11-04T01:33:52;3.53;;;3.23;;
19905;SDS011;10115;50.906;4.438;2022-11-04T01:36:19;6.90;;;3.17;;
19905;SDS011;10115;50.906;4.438;2022-11-04T01:38:45;3.70;;;2.83;;
19905;SDS011;10115;50.906;4.438;2022-11-04T01:41:18;3.50;;;3.17;;
19905;SDS011;10115;50.906;4.438;2022-11-04T01:43:51;3.10;;;2.90;;
19905;SDS011;10115;50.906;4.438;2022-11-04T01:48:52;5.43;;;3.17;;
19905;SDS011;10115;50.906;4.438;2022-11-04T01:51:23;7.17;;;3.37;;
19905;SDS011;10115;50.906;4.438;2022-11-04T01:53:49;2.73;;;2.63;;
19905;SDS011;10115;50.906;4.438;2022-11-04T01:56:19;3.27;;;2.57;;
19905;SDS011;10115;50.906;4.438;2022-11-04T01:58:46;8.63;;;3.33;;
19905;SDS011;10115;50.906;4.438;2022-11-04T02:01:15;3.50;;;3.20;;
19905;SDS011;10115;50.906;4.438;2022-11-04T02:06:18;2.83;;;2.73;;
19905;SDS011;10115;50.906;4.438;2022-11-04T02:08:46;4.73;;;3.63;;
19905;SDS011;10115;50.906;4.438;2022-11-04T02:11:13;3.50;;;3.20;;
19905;SDS011;10115;50.906;4.438;2022-11-04T02:13:59;3.20;;;3.00;;
19905;SDS011;10115;50.906;4.438;2022-11-04T02:16:37;4.20;;;3.47;;
19905;SDS011;10115;50.906;4.438;2022-11-04T02:25:14;6.47;;;3.00;;
19905;SDS011;10115;50.906;4.438;2022-11-04T02:30:47;5.23;;;3.37;;
19905;SDS011;10115;50.906;4.438;2022-11-04T02:33:22;3.77;;;3.47;;
19905;SDS011;10115;50.906;4.438;2022-11-04T02:36:07;2.83;;;2.67;;
19905;SDS011;10115;50.906;4.438;2022-11-04T02:42:29;3.43;;;3.20;;
19905;SDS011;10115;50.906;4.438;2022-11-04T02:44:39;10.27;;;3.40;;
19905;SDS011;10115;50.906;4.438;2022-11-04T02:47:12;3.23;;;2.90;;
19905;SDS011;10115;50.906;4.438;2022-11-04T02:49:47;3.27;;;3.07;;
19905;SDS011;10115;50.906;4.438;2022-11-04T02:52:39;3.73;;;3.37;;
19905;SDS011;10115;50.906;4.438;2022-11-04T02:55:23;3.57;;;3.27;;
19905;SDS011;10115;50.906;4.438;2022-11-04T02:58:09;3.23;;;3.07;;
19905;SDS011;10115;50.906;4.438;2022-11-04T03:00:45;2.80;;;2.70;;
19905;SDS011;10115;50.906;4.438;2022-11-04T03:03:16;6.77;;;3.83;;
19905;SDS011;10115;50.906;4.438;2022-11-04T03:05:47;4.20;;;3.10;;
19905;SDS011;10115;50.906;4.438;2022-11-04T03:08:17;3.80;;;2.97;;
19905;SDS011;10115;50.906;4.438;2022-11-04T03:11:11;9.70;;;3.47;;
19905;SDS011;10115;50.906;4.438;2022-11-04T03:13:45;5.77;;;3.70;;
19905;SDS011;10115;50.906;4.438;2022-11-04T03:16:33;7.20;;;3.50;;
19905;SDS011;10115;50.906;4.438;2022-11-04T03:21:37;5.53;;;3.10;;
19905;SDS011;10115;50.906;4.438;2022-11-04T03:24:08;3.40;;;3.10;;
19905;SDS011;10115;50.906;4.438;2022-11-04T03:29:34;7.97;;;3.73;;
19905;SDS011;10115;50.906;4.438;2022-11-04T03:32:24;4.90;;;4.40;;
19905;SDS011;10115;50.906;4.438;2022-11-04T03:35:03;8.53;;;3.07;;
19905;SDS011;10115;50.906;4.438;2022-11-04T03:37:30;3.60;;;3.30;;
19905;SDS011;10115;50.906;4.438;2022-11-04T03:39:56;3.77;;;3.40;;
19905;SDS011;10115;50.906;4.438;2022-11-04T03:42:22;4.63;;;3.30;;
19905;SDS011;10115;50.906;4.438;2022-11-04T03:44:50;5.43;;;3.53;;
19905;SDS011;10115;50.906;4.438;2022-11-04T03:47:17;4.40;;;3.80;;
19905;SDS011;10115;50.906;4.438;2022-11-04T03:49:46;5.20;;;3.37;;
19905;SDS011;10115;50.906;4.438;2022-11-04T03:52:13;4.07;;;3.57;;
19905;SDS011;10115;50.906;4.438;2022-11-04T03:54:40;3.00;;;2.80;;
19905;SDS011;10115;50.906;4.438;2022-11-04T03:57:10;4.40;;;3.20;;
19905;SDS011;10115;50.906;4.438;2022-11-04T03:59:46;3.63;;;3.33;;
19905;SDS011;10115;50.906;4.438;2022-11-04T04:03:05;4.57;;;3.47;;
19905;SDS011;10115;50.906;4.438;2022-11-04T04:05:30;7.27;;;4.27;;
19905;SDS011;10115;50.906;4.438;2022-11-04T04:16:38;3.10;;;3.00;;
19905;SDS011;10115;50.906;4.438;2022-11-04T04:19:17;5.87;;;3.67;;
19905;SDS011;10115;50.906;4.438;2022-11-04T04:22:18;5.20;;;3.53;;
19905;SDS011;10115;50.906;4.438;2022-11-04T04:24:43;3.40;;;3.10;;
19905;SDS011;10115;50.906;4.438;2022-11-04T04:27:30;5.73;;;3.40;;
19905;SDS011;10115;50.906;4.438;2022-11-04T04:30:03;6.47;;;3.43;;
19905;SDS011;10115;50.906;4.438;2022-11-04T04:32:44;5.07;;;3.23;;
19905;SDS011;10115;50.906;4.438;2022-11-04T04:35:21;5.07;;;3.27;;
19905;SDS011;10115;50.906;4.438;2022-11-04T04:38:06;3.80;;;3.10;;
19905;SDS011;10115;50.906;4.438;2022-11-04T04:44:03;3.37;;;3.13;;
19905;SDS011;10115;50.906;4.438;2022-11-04T04:46:56;4.50;;;3.93;;
19905;SDS011;10115;50.906;4.438;2022-11-04T04:49:23;3.40;;;3.10;;
19905;SDS011;10115;50.906;4.438;2022-11-04T04:51:48;2.97;;;2.80;;
19905;SDS011;10115;50.906;4.438;2022-11-04T04:54:14;2.90;;;2.80;;
19905;SDS011;10115;50.906;4.438;2022-11-04T04:56:40;5.90;;;3.10;;
19905;SDS011;10115;50.906;4.438;2022-11-04T04:59:05;3.53;;;2.90;;
19905;SDS011;10115;50.906;4.438;2022-11-04T05:01:31;3.53;;;3.23;;
19905;SDS011;10115;50.906;4.438;2022-11-04T05:03:57;2.67;;;2.57;;
19905;SDS011;10115;50.906;4.438;2022-11-04T05:06:22;3.20;;;2.87;;
19905;SDS011;10115;50.906;4.438;2022-11-04T05:08:48;3.83;;;3.23;;
19905;SDS011;10115;50.906;4.438;2022-11-04T05:11:14;5.80;;;3.17;;
19905;SDS011;10115;50.906;4.438;2022-11-04T05:13:39;4.07;;;3.27;;
19905;SDS011;10115;50.906;4.438;2022-11-04T05:16:06;3.47;;;3.27;;
19905;SDS011;10115;50.906;4.438;2022-11-04T05:18:34;6.23;;;3.17;;
19905;SDS011;10115;50.906;4.438;2022-11-04T05:21:07;4.43;;;3.70;;
19905;SDS011;10115;50.906;4.438;2022-11-04T05:23:35;7.23;;;3.33;;
19905;SDS011;10115;50.906;4.438;2022-11-04T05:26:01;8.90;;;3.40;;
19905;SDS011;10115;50.906;4.438;2022-11-04T05:28:27;4.27;;;3.30;;
19905;SDS011;10115;50.906;4.438;2022-11-04T05:30:53;3.20;;;3.00;;
19905;SDS011;10115;50.906;4.438;2022-11-04T05:33:18;4.43;;;2.67;;
19905;SDS011;10115;50.906;4.438;2022-11-04T05:35:44;10.33;;;3.13;;
19905;SDS011;10115;50.906;4.438;2022-11-04T05:38:10;6.90;;;3.33;;
19905;SDS011;10115;50.906;4.438;2022-11-04T05:40:35;2.90;;;2.70;;
19905;SDS011;10115;50.906;4.438;2022-11-04T05:43:01;3.23;;;3.03;;
19905;SDS011;10115;50.906;4.438;2022-11-04T05:45:27;3.03;;;2.80;;
19905;SDS011;10115;50.906;4.438;2022-11-04T05:47:59;3.30;;;3.00;;
19905;SDS011;10115;50.906;4.438;2022-11-04T05:50:27;9.43;;;3.63;;
19905;SDS011;10115;50.906;4.438;2022-11-04T05:52:57;3.47;;;3.27;;
19905;SDS011;10115;50.906;4.438;2022-11-04T05:55:24;6.37;;;3.73;;
19905;SDS011;10115;50.906;4.438;2022-11-04T05:57:50;7.23;;;3.03;;
19905;SDS011;10115;50.906;4.438;2022-11-04T06:00:16;3.00;;;2.80;;
19905;SDS011;10115;50.906;4.438;2022-11-04T06:02:42;3.00;;;2.80;;
19905;SDS011;10115;50.906;4.438;2022-11-04T06:05:07;6.53;;;3.50;;
19905;SDS011;10115;50.906;4.438;2022-11-04T06:07:33;7.27;;;3.23;;
19905;SDS011;10115;50.906;4.438;2022-11-04T06:09:59;3.80;;;3.10;;
19905;SDS011;10115;50.906;4.438;2022-11-04T06:12:25;3.83;;;2.73;;
19905;SDS011;10115;50.906;4.438;2022-11-04T06:14:50;2.90;;;2.70;;
19905;SDS011;10115;50.906;4.438;2022-11-04T06:17:17;6.20;;;3.00;;
19905;SDS011;10115;50.906;4.438;2022-11-04T06:19:44;5.07;;;3.50;;
19905;SDS011;10115;50.906;4.438;2022-11-04T06:22:11;3.43;;;3.13;;
19905;SDS011;10115;50.906;4.438;2022-11-04T06:24:38;4.50;;;3.20;;
19905;SDS011;10115;50.906;4.438;2022-11-04T06:27:05;10.00;;;3.60;;
19905;SDS011;10115;50.906;4.438;2022-11-04T06:29:31;7.00;;;3.47;;
19905;SDS011;10115;50.906;4.438;2022-11-04T06:31:56;3.17;;;2.77;;
19905;SDS011;10115;50.906;4.438;2022-11-04T06:34:22;5.30;;;3.10;;
19905;SDS011;10115;50.906;4.438;2022-11-04T06:36:48;4.70;;;3.40;;
19905;SDS011;10115;50.906;4.438;2022-11-04T06:39:14;4.70;;;2.80;;
19905;SDS011;10115;50.906;4.438;2022-11-04T06:41:40;10.77;;;3.07;;
19905;SDS011;10115;50.906;4.438;2022-11-04T06:44:06;9.13;;;3.10;;
19905;SDS011;10115;50.906;4.438;2022-11-04T06:46:39;3.23;;;2.80;;
19905;SDS011;10115;50.906;4.438;2022-11-04T06:49:08;16.93;;;3.50;;
19905;SDS011;10115;50.906;4.438;2022-11-04T06:51:36;5.40;;;3.10;;
19905;SDS011;10115;50.906;4.438;2022-11-04T06:54:02;4.67;;;2.90;;
19905;SDS011;10115;50.906;4.438;2022-11-04T06:56:27;8.77;;;3.50;;
19905;SDS011;10115;50.906;4.438;2022-11-04T06:58:53;5.23;;;3.83;;
19905;SDS011;10115;50.906;4.438;2022-11-04T07:01:21;8.33;;;3.07;;
19905;SDS011;10115;50.906;4.438;2022-11-04T07:03:48;7.37;;;3.40;;
19905;SDS011;10115;50.906;4.438;2022-11-04T07:06:18;3.33;;;3.10;;
19905;SDS011;10115;50.906;4.438;2022-11-04T07:08:44;6.60;;;3.33;;
19905;SDS011;10115;50.906;4.438;2022-11-04T07:11:10;9.40;;;3.57;;
19905;SDS011;10115;50.906;4.438;2022-11-04T07:13:36;3.70;;;3.10;;
19905;SDS011;10115;50.906;4.438;2022-11-04T07:16:05;3.57;;;3.30;;
19905;SDS011;10115;50.906;4.438;2022-11-04T07:18:32;9.23;;;3.93;;
19905;SDS011;10115;50.906;4.438;2022-11-04T07:20:57;6.27;;;3.10;;
19905;SDS011;10115;50.906;4.438;2022-11-04T07:23:23;6.43;;;3.30;;
19905;SDS011;10115;50.906;4.438;2022-11-04T07:25:49;3.10;;;2.90;;
19905;SDS011;10115;50.906;4.438;2022-11-04T07:28:15;6.33;;;2.63;;
19905;SDS011;10115;50.906;4.438;2022-11-04T07:30:41;11.40;;;4.03;;
19905;SDS011;10115;50.906;4.438;2022-11-04T07:33:06;4.17;;;3.70;;
19905;SDS011;10115;50.906;4.438;2022-11-04T07:35:32;4.57;;;3.27;;
19905;SDS011;10115;50.906;4.438;2022-11-04T07:37:59;8.20;;;3.40;;
19905;SDS011;10115;50.906;4.438;2022-11-04T07:40:25;3.43;;;3.20;;
19905;SDS011;10115;50.906;4.438;2022-11-04T07:42:51;3.43;;;2.73;;
19905;SDS011;10115;50.906;4.438;2022-11-04T07:45:16;8.43;;;3.43;;
19905;SDS011;10115;50.906;4.438;2022-11-04T07:47:42;3.00;;;2.77;;
19905;SDS011;10115;50.906;4.438;2022-11-04T07:50:08;5.77;;;3.23;;
19905;SDS011;10115;50.906;4.438;2022-11-04T07:52:34;3.73;;;2.93;;
19905;SDS011;10115;50.906;4.438;2022-11-04T07:54:59;4.40;;;3.57;;
19905;SDS011;10115;50.906;4.438;2022-11-04T07:57:25;8.67;;;3.30;;
19905;SDS011;10115;50.906;4.438;2022-11-04T07:59:52;11.43;;;3.10;;
19905;SDS011;10115;50.906;4.438;2022-11-04T08:02:18;5.13;;;2.97;;
19905;SDS011;10115;50.906;4.438;2022-11-04T08:04:43;3.57;;;3.07;;
19905;SDS011;10115;50.906;4.438;2022-11-04T08:07:09;11.63;;;3.37;;
19905;SDS011;10115;50.906;4.438;2022-11-04T08:09:34;8.63;;;4.10;;
19905;SDS011;10115;50.906;4.438;2022-11-04T08:12:01;3.37;;;3.07;;
19905;SDS011;10115;50.906;4.438;2022-11-04T08:14:28;3.60;;;3.07;;
19905;SDS011;10115;50.906;4.438;2022-11-04T08:16:53;7.83;;;3.20;;
19905;SDS011;10115;50.906;4.438;2022-11-04T08:19:19;10.10;;;3.37;;
19905;SDS011;10115;50.906;4.438;2022-11-04T08:21:45;4.43;;;3.27;;
19905;SDS011;10115;50.906;4.438;2022-11-04T08:24:10;5.57;;;3.40;;
19905;SDS011;10115;50.906;4.438;2022-11-04T08:26:36;4.77;;;3.10;;
19905;SDS011;10115;50.906;4.438;2022-11-04T08:29:05;7.10;;;3.57;;
19905;SDS011;10115;50.906;4.438;2022-11-04T08:31:34;5.87;;;3.80;;
19905;SDS011;10115;50.906;4.438;2022-11-04T08:34:00;4.50;;;2.93;;
19905;SDS011;10115;50.906;4.438;2022-11-04T08:36:27;14.07;;;4.03;;
19905;SDS011;10115;50.906;4.438;2022-11-04T08:38:55;7.00;;;2.70;;
19905;SDS011;10115;50.906;4.438;2022-11-04T08:41:23;3.07;;;2.87;;
19905;SDS011;10115;50.906;4.438;2022-11-04T08:43:50;6.07;;;3.17;;
19905;SDS011;10115;50.906;4.438;2022-11-04T08:46:16;9.33;;;3.93;;
19905;SDS011;10115;50.906;4.438;2022-11-04T08:48:43;3.00;;;2.80;;
19905;SDS011;10115;50.906;4.438;2022-11-04T08:51:11;10.67;;;3.30;;
19905;SDS011;10115;50.906;4.438;2022-11-04T08:53:39;4.77;;;3.20;;
19905;SDS011;10115;50.906;4.438;2022-11-04T08:56:24;4.90;;;3.50;;
19905;SDS011;10115;50.906;4.438;2022-11-04T08:58:52;6.33;;;3.53;;
19905;SDS011;10115;50.906;4.438;2022-11-04T09:01:19;8.07;;;4.30;;
19905;SDS011;10115;50.906;4.438;2022-11-04T09:03:45;10.77;;;3.70;;
19905;SDS011;10115;50.906;4.438;2022-11-04T09:06:13;8.97;;;3.60;;
19905;SDS011;10115;50.906;4.438;2022-11-04T09:08:41;3.47;;;2.70;;
19905;SDS011;10115;50.906;4.438;2022-11-04T09:11:08;8.57;;;3.93;;
19905;SDS011;10115;50.906;4.438;2022-11-04T09:13:36;6.37;;;3.23;;
19905;SDS011;10115;50.906;4.438;2022-11-04T09:16:02;8.63;;;3.80;;
19905;SDS011;10115;50.906;4.438;2022-11-04T09:18:29;4.90;;;3.60;;
19905;SDS011;10115;50.906;4.438;2022-11-04T09:20:58;5.07;;;3.27;;
19905;SDS011;10115;50.906;4.438;2022-11-04T09:23:24;4.20;;;3.57;;
19905;SDS011;10115;50.906;4.438;2022-11-04T09:25:50;5.97;;;3.20;;
19905;SDS011;10115;50.906;4.438;2022-11-04T09:28:16;4.20;;;3.10;;
19905;SDS011;10115;50.906;4.438;2022-11-04T09:30:42;6.77;;;4.37;;
19905;SDS011;10115;50.906;4.438;2022-11-04T09:33:07;7.40;;;3.43;;
19905;SDS011;10115;50.906;4.438;2022-11-04T09:35:33;10.17;;;4.07;;
19905;SDS011;10115;50.906;4.438;2022-11-04T09:37:59;7.10;;;3.90;;
19905;SDS011;10115;50.906;4.438;2022-11-04T09:40:25;7.53;;;3.70;;
19905;SDS011;10115;50.906;4.438;2022-11-04T09:45:38;6.40;;;3.73;;
19905;SDS011;10115;50.906;4.438;2022-11-04T09:48:07;9.20;;;4.13;;
19905;SDS011;10115;50.906;4.438;2022-11-04T09:50:43;8.77;;;4.60;;
19905;SDS011;10115;50.906;4.438;2022-11-04T09:56:03;11.00;;;3.57;;
19905;SDS011;10115;50.906;4.438;2022-11-04T09:58:36;5.23;;;3.33;;
19905;SDS011;10115;50.906;4.438;2022-11-04T10:01:11;3.40;;;3.00;;
19905;SDS011;10115;50.906;4.438;2022-11-04T10:03:47;8.90;;;3.93;;
19905;SDS011;10115;50.906;4.438;2022-11-04T10:09:10;5.73;;;2.87;;
19905;SDS011;10115;50.906;4.438;2022-11-04T10:19:08;11.40;;;4.50;;
19905;SDS011;10115;50.906;4.438;2022-11-04T10:27:16;6.80;;;3.20;;
19905;SDS011;10115;50.906;4.438;2022-11-04T10:29:54;4.47;;;3.43;;
19905;SDS011;10115;50.906;4.438;2022-11-04T10:32:40;4.87;;;4.47;;
19905;SDS011;10115;50.906;4.438;2022-11-04T10:38:15;5.03;;;3.53;;
19905;SDS011;10115;50.906;4.438;2022-11-04T10:40:41;4.97;;;3.77;;
19905;SDS011;10115;50.906;4.438;2022-11-04T10:43:12;12.43;;;4.63;;
19905;SDS011;10115;50.906;4.438;2022-11-04T10:45:42;5.97;;;4.30;;
19905;SDS011;10115;50.906;4.438;2022-11-04T10:48:24;17.80;;;5.70;;
19905;SDS011;10115;50.906;4.438;2022-11-04T10:50:58;6.60;;;4.97;;
19905;SDS011;10115;50.906;4.438;2022-11-04T10:53:25;5.80;;;4.17;;
19905;SDS011;10115;50.906;4.438;2022-11-04T10:55:56;8.10;;;4.47;;
19905;SDS011;10115;50.906;4.438;2022-11-04T10:58:28;10.37;;;4.90;;
19905;SDS011;10115;50.906;4.438;2022-11-04T11:03:57;8.03;;;5.63;;
19905;SDS011;10115;50.906;4.438;2022-11-04T11:08:49;6.93;;;4.47;;
19905;SDS011;10115;50.906;4.438;2022-11-04T11:11:16;5.07;;;4.50;;
19905;SDS011;10115;50.906;4.438;2022-11-04T11:14:01;8.67;;;4.97;;
19905;SDS011;10115;50.906;4.438;2022-11-04T11:16:27;9.63;;;4.97;;
19905;SDS011;10115;50.906;4.438;2022-11-04T11:21:49;7.77;;;5.03;;
19905;SDS011;10115;50.906;4.438;2022-11-04T11:26:44;5.67;;;4.83;;
19905;SDS011;10115;50.906;4.438;2022-11-04T11:29:47;11.00;;;5.43;;
19905;SDS011;10115;50.906;4.438;2022-11-04T11:32:29;8.90;;;5.00;;
19905;SDS011;10115;50.906;4.438;2022-11-04T11:34:56;12.97;;;5.53;;
19905;SDS011;10115;50.906;4.438;2022-11-04T11:37:25;20.20;;;5.50;;
19905;SDS011;10115;50.906;4.438;2022-11-04T11:39:54;8.00;;;4.73;;
19905;SDS011;10115;50.906;4.438;2022-11-04T11:42:21;7.27;;;4.37;;
19905;SDS011;10115;50.906;4.438;2022-11-04T11:44:48;8.63;;;4.60;;
19905;SDS011;10115;50.906;4.438;2022-11-04T11:47:20;5.37;;;4.33;;
19905;SDS011;10115;50.906;4.438;2022-11-04T11:52:43;10.67;;;5.20;;
19905;SDS011;10115;50.906;4.438;2022-11-04T12:01:16;6.17;;;5.43;;
19905;SDS011;10115;50.906;4.438;2022-11-04T12:03:47;7.17;;;4.73;;
19905;SDS011;10115;50.906;4.438;2022-11-04T12:06:17;12.40;;;6.10;;
19905;SDS011;10115;50.906;4.438;2022-11-04T12:17:04;14.90;;;6.60;;
19905;SDS011;10115;50.906;4.438;2022-11-04T12:28:02;10.13;;;6.57;;
19905;SDS011;10115;50.906;4.438;2022-11-04T12:30:44;9.77;;;7.40;;
19905;SDS011;10115;50.906;4.438;2022-11-04T12:33:40;15.00;;;6.40;;
19905;SDS011;10115;50.906;4.438;2022-11-04T12:36:52;10.43;;;6.43;;
19905;SDS011;10115;50.906;4.438;2022-11-04T12:45:31;8.20;;;6.20;;
19905;SDS011;10115;50.906;4.438;2022-11-04T12:48:08;6.87;;;6.17;;
19905;SDS011;10115;50.906;4.438;2022-11-04T12:56:18;4.90;;;4.33;;
19905;SDS011;10115;50.906;4.438;2022-11-04T13:09:18;10.20;;;5.17;;
19905;SDS011;10115;50.906;4.438;2022-11-04T13:14:18;6.87;;;5.10;;
19905;SDS011;10115;50.906;4.438;2022-11-04T13:16:53;9.90;;;5.30;;
19905;SDS011;10115;50.906;4.438;2022-11-04T13:19:28;7.93;;;5.37;;
19905;SDS011;10115;50.906;4.438;2022-11-04T13:22:36;6.20;;;5.33;;
19905;SDS011;10115;50.906;4.438;2022-11-04T13:25:48;8.53;;;6.20;;
19905;SDS011;10115;50.906;4.438;2022-11-04T13:28:08;14.57;;;6.37;;
19905;SDS011;10115;50.906;4.438;2022-11-04T13:30:42;12.33;;;6.50;;
19905;SDS011;10115;50.906;4.438;2022-11-04T13:38:31;8.93;;;5.63;;
19905;SDS011;10115;50.906;4.438;2022-11-04T13:41:07;10.53;;;6.57;;
19905;SDS011;10115;50.906;4.438;2022-11-04T13:43:57;11.33;;;6.37;;
19905;SDS011;10115;50.906;4.438;2022-11-04T13:46:26;5.87;;;5.07;;
19905;SDS011;10115;50.906;4.438;2022-11-04T13:48:58;11.10;;;6.23;;
19905;SDS011;10115;50.906;4.438;2022-11-04T13:51:38;11.63;;;6.20;;
19905;SDS011;10115;50.906;4.438;2022-11-04T13:54:06;7.97;;;5.17;;
19905;SDS011;10115;50.906;4.438;2022-11-04T13:57:13;9.23;;;4.43;;
19905;SDS011;10115;50.906;4.438;2022-11-04T13:59:42;5.97;;;4.60;;
19905;SDS011;10115;50.906;4.438;2022-11-04T14:10:41;6.50;;;3.93;;
19905;SDS011;10115;50.906;4.438;2022-11-04T14:13:39;3.80;;;3.50;;
19905;SDS011;10115;50.906;4.438;2022-11-04T14:16:10;4.07;;;3.77;;
19905;SDS011;10115;50.906;4.438;2022-11-04T14:18:49;4.87;;;3.30;;
19905;SDS011;10115;50.906;4.438;2022-11-04T14:21:20;9.67;;;4.00;;
19905;SDS011;10115;50.906;4.438;2022-11-04T14:24:10;6.57;;;3.63;;
19905;SDS011;10115;50.906;4.438;2022-11-04T14:29:16;4.10;;;3.43;;
19905;SDS011;10115;50.906;4.438;2022-11-04T14:31:49;2.23;;;2.13;;
19905;SDS011;10115;50.906;4.438;2022-11-04T14:34:25;4.77;;;2.13;;
19905;SDS011;10115;50.906;4.438;2022-11-04T14:36:57;2.30;;;2.20;;
19905;SDS011;10115;50.906;4.438;2022-11-04T14:39:28;2.97;;;2.77;;
19905;SDS011;10115;50.906;4.438;2022-11-04T14:42:02;2.97;;;2.40;;
19905;SDS011;10115;50.906;4.438;2022-11-04T14:44:33;2.53;;;2.43;;
19905;SDS011;10115;50.906;4.438;2022-11-04T14:57:36;3.90;;;2.67;;
19905;SDS011;10115;50.906;4.438;2022-11-04T15:00:22;4.00;;;2.63;;
19905;SDS011;10115;50.906;4.438;2022-11-04T15:03:30;2.40;;;2.30;;
19905;SDS011;10115;50.906;4.438;2022-11-04T15:06:00;4.20;;;2.90;;
19905;SDS011;10115;50.906;4.438;2022-11-04T15:10:57;2.40;;;2.30;;
19905;SDS011;10115;50.906;4.438;2022-11-04T15:13:36;2.50;;;2.30;;
19905;SDS011;10115;50.906;4.438;2022-11-04T15:16:17;2.20;;;2.10;;
19905;SDS011;10115;50.906;4.438;2022-11-04T15:18:50;9.10;;;3.30;;
19905;SDS011;10115;50.906;4.438;2022-11-04T15:21:17;2.37;;;2.17;;
19905;SDS011;10115;50.906;4.438;2022-11-04T15:23:47;2.90;;;2.63;;
19905;SDS011;10115;50.906;4.438;2022-11-04T15:26:18;6.90;;;2.40;;
19905;SDS011;10115;50.906;4.438;2022-11-04T15:28:45;2.57;;;2.47;;
19905;SDS011;10115;50.906;4.438;2022-11-04T15:33:46;2.73;;;2.63;;
19905;SDS011;10115;50.906;4.438;2022-11-04T15:36:18;2.50;;;2.40;;
19905;SDS011;10115;50.906;4.438;2022-11-04T15:38:57;2.50;;;2.40;;
19905;SDS011;10115;50.906;4.438;2022-11-04T15:41:26;3.03;;;2.83;;
19905;SDS011;10115;50.906;4.438;2022-11-04T15:44:14;2.70;;;2.60;;
19905;SDS011;10115;50.906;4.438;2022-11-04T15:46:52;7.00;;;2.93;;
19905;SDS011;10115;50.906;4.438;2022-11-04T15:49:21;3.20;;;2.93;;
19905;SDS011;10115;50.906;4.438;2022-11-04T15:51:58;3.33;;;3.03;;
19905;SDS011;10115;50.906;4.438;2022-11-04T15:54:38;2.53;;;2.43;;
19905;SDS011;10115;50.906;4.438;2022-11-04T16:02:45;3.33;;;3.03;;
19905;SDS011;10115;50.906;4.438;2022-11-04T16:05:26;5.27;;;3.47;;
19905;SDS011;10115;50.906;4.438;2022-11-04T16:08:14;5.10;;;2.67;;
19905;SDS011;10115;50.906;4.438;2022-11-04T16:10:44;4.27;;;3.23;;
19905;SDS011;10115;50.906;4.438;2022-11-04T16:15:43;5.73;;;4.17;;
19905;SDS011;10115;50.906;4.438;2022-11-04T16:21:04;8.33;;;3.77;;
19905;SDS011;10115;50.906;4.438;2022-11-04T16:26:46;7.70;;;3.40;;
19905;SDS011;10115;50.906;4.438;2022-11-04T16:29:17;5.80;;;3.17;;
19905;SDS011;10115;50.906;4.438;2022-11-04T16:34:41;7.47;;;4.23;;
19905;SDS011;10115;50.906;4.438;2022-11-04T16:37:07;5.67;;;3.70;;
19905;SDS011;10115;50.906;4.438;2022-11-04T16:39:32;16.83;;;9.93;;
19905;SDS011;10115;50.906;4.438;2022-11-04T16:41:58;3.73;;;3.43;;
19905;SDS011;10115;50.906;4.438;2022-11-04T16:44:24;4.47;;;3.23;;
19905;SDS011;10115;50.906;4.438;2022-11-04T16:46:51;3.20;;;3.00;;
19905;SDS011;10115;50.906;4.438;2022-11-04T16:49:18;3.40;;;3.20;;
19905;SDS011;10115;50.906;4.438;2022-11-04T16:51:47;3.17;;;2.97;;
19905;SDS011;10115;50.906;4.438;2022-11-04T16:54:17;3.47;;;3.17;;
19905;SDS011;10115;50.906;4.438;2022-11-04T16:56:42;3.63;;;3.37;;
19905;SDS011;10115;50.906;4.438;2022-11-04T16:59:10;4.87;;;3.33;;
19905;SDS011;10115;50.906;4.438;2022-11-04T17:01:36;3.73;;;3.40;;
19905;SDS011;10115;50.906;4.438;2022-11-04T17:04:04;7.00;;;4.50;;
19905;SDS011;10115;50.906;4.438;2022-11-04T17:06:33;3.57;;;3.37;;
19905;SDS011;10115;50.906;4.438;2022-11-04T17:08:59;3.60;;;3.40;;
19905;SDS011;10115;50.906;4.438;2022-11-04T17:11:25;4.90;;;3.60;;
19905;SDS011;10115;50.906;4.438;2022-11-04T17:13:54;3.73;;;3.53;;
19905;SDS011;10115;50.906;4.438;2022-11-04T17:16:20;3.83;;;3.53;;
19905;SDS011;10115;50.906;4.438;2022-11-04T17:18:45;3.93;;;3.50;;
19905;SDS011;10115;50.906;4.438;2022-11-04T17:21:12;5.17;;;3.30;;
19905;SDS011;10115;50.906;4.438;2022-11-04T17:23:41;4.30;;;3.33;;
19905;SDS011;10115;50.906;4.438;2022-11-04T17:26:08;3.53;;;3.23;;
19905;SDS011;10115;50.906;4.438;2022-11-04T17:28:35;4.43;;;3.00;;
19905;SDS011;10115;50.906;4.438;2022-11-04T17:31:01;3.07;;;2.87;;
19905;SDS011;10115;50.906;4.438;2022-11-04T17:33:27;3.23;;;3.03;;
19905;SDS011;10115;50.906;4.438;2022-11-04T17:35:53;4.10;;;3.20;;
19905;SDS011;10115;50.906;4.438;2022-11-04T17:38:19;4.10;;;2.80;;
19905;SDS011;10115;50.906;4.438;2022-11-04T17:40:44;3.27;;;3.07;;
19905;SDS011;10115;50.906;4.438;2022-11-04T17:43:29;3.50;;;3.27;;
19905;SDS011;10115;50.906;4.438;2022-11-04T17:46:13;3.63;;;3.33;;
19905;SDS011;10115;50.906;4.438;2022-11-04T17:49:02;9.20;;;4.30;;
19905;SDS011;10115;50.906;4.438;2022-11-04T17:51:31;4.17;;;3.73;;
19905;SDS011;10115;50.906;4.438;2022-11-04T17:53:57;3.63;;;3.33;;
19905;SDS011;10115;50.906;4.438;2022-11-04T17:56:23;3.40;;;3.10;;
19905;SDS011;10115;50.906;4.438;2022-11-04T17:58:49;4.20;;;3.90;;